Terminal Aerodrome Forecast
Issued by NWS Mt. Holly, NJ

Home | Current Version | Previous Version | Text Only | Print | Product List | Glossary On
Versions: 1 2 3 4 5 6 7 8 9 10 11 12 13 14 15 16 17 18 19
745
FTUS41 KPHI 191734
TAFRDG
TAF
KRDG 191734Z 1918/2018 30007KT P6SM SCT040
     FM200000 25006KT P6SM VCSH BKN040
     FM200300 VRB03KT P6SM SCT100
     FM201300 32006KT P6SM FEW250=

USA.gov is the U.S. government's official web portal to all federal, state and local government web resources and services.